Observation data for Seymour on 03/13/2018      Previous  Date  Next       Current Mesonet Observations  Soil Data  Daily Summary Page  Observations in Plain Language
KSE1 130500Z 14000KT 05/M02 A3028 RMK A01 T00511022  RH  060%=      5-min Rain = 0
KSE1 130505Z 13000KT 05/M02 A3028 RMK A01 T00511020  RH  061%=      5-min Rain = 0
KSE1 130510Z 13000KT 05/M02 A3028 RMK A01 T00481023  RH  061%=      5-min Rain = 0
KSE1 130515Z 00000KT 04/M02 A3028 RMK A01 T00441018  RH  065%=      5-min Rain = 0
KSE1 130520Z 17000KT 04/M01 A3028 RMK A01 T00401013  RH  069%=      5-min Rain = 0
KSE1 130525Z 00000KT 04/M01 A3028 RMK A01 T00401007  RH  072%=      5-min Rain = 0
KSE1 130530Z 00000KT 04/M00 A3028 RMK A01 T00441003  RH  073%=      5-min Rain = 0
KSE1 130535Z 00000KT 04/M00 A3028 RMK A01 T00421003  RH  074%=      5-min Rain = 0
KSE1 130540Z 00000KT 04/M01 A3028 RMK A01 T00391005  RH  074%=      5-min Rain = 0
KSE1 130545Z 00000KT 04/M01 A3028 RMK A01 T00401011  RH  070%=      5-min Rain = 0
KSE1 130550Z 00000KT 04/M02 A3028 RMK A01 T00431022  RH  063%=      5-min Rain = 0
KSE1 130555Z 00000KT 05/M03 A3027 RMK A01 T00491029  RH  057%=      5-min Rain = 0
KSE1 130600Z 00000KT 05/M03 A3027 RMK A01 T00501031  RH  056%=      5-min Rain = 0
KSE1 130605Z 00000KT 05/M03 A3027 RMK A01 T00491028  RH  058%=      5-min Rain = 0
KSE1 130610Z 00000KT 05/M02 A3027 RMK A01 T00491023  RH  060%=      5-min Rain = 0
KSE1 130615Z 11001KT 05/M02 A3027 RMK A01 T00481016  RH  064%=      5-min Rain = 0
KSE1 130620Z 09001KT 05/M02 A3027 RMK A01 T00461016  RH  065%=      5-min Rain = 0
KSE1 130625Z 09002KT 05/M02 A3027 RMK A01 T00461020  RH  063%=      5-min Rain = 0
KSE1 130630Z 09002KT 05/M02 A3027 RMK A01 T00491021  RH  061%=      5-min Rain = 0
KSE1 130635Z 09002KT 05/M02 A3027 RMK A01 T00511020  RH  061%=      5-min Rain = 0
KSE1 130640Z 09003KT 05/M01 A3027 RMK A01 T00501012  RH  065%=      5-min Rain = 0
KSE1 130645Z 09002KT 05/M01 A3027 RMK A01 T00501010  RH  066%=      5-min Rain = 0
KSE1 130650Z 09003KT 05/M01 A3027 RMK A01 T00531011  RH  064%=      5-min Rain = 0
KSE1 130655Z 08003KT 06/M02 A3027 RMK A01 T00581020  RH  058%=      5-min Rain = 0
KSE1 130700Z 08003KT 06/M02 A3027 RMK A01 T00601021  RH  057%=      5-min Rain = 0
KSE1 130705Z 07004KT 07/M02 A3027 RMK A01 T00651019  RH  055%=      5-min Rain = 0
KSE1 130710Z 07004KT 07/M02 A3027 RMK A01 T00681019  RH  054%=      5-min Rain = 0
KSE1 130715Z 07005KT 07/M02 A3027 RMK A01 T00721019  RH  053%=      5-min Rain = 0
KSE1 130720Z 07005KT 08/M02 A3027 RMK A01 T00751021  RH  051%=      5-min Rain = 0
KSE1 130725Z 07004KT 08/M02 A3027 RMK A01 T00761023  RH  050%=      5-min Rain = 0
KSE1 130730Z 07004KT 08/M02 A3027 RMK A01 T00761022  RH  050%=      5-min Rain = 0
KSE1 130735Z 08004KT 08/M02 A3027 RMK A01 T00751021  RH  051%=      5-min Rain = 0
KSE1 130740Z 08005KT 08/M02 A3027 RMK A01 T00771024  RH  049%=      5-min Rain = 0
KSE1 130745Z 08006KT 08/M03 A3026 RMK A01 T00791029  RH  047%=      5-min Rain = 0
KSE1 130750Z 08006KT 08/M03 A3027 RMK A01 T00811034  RH  045%=      5-min Rain = 0
KSE1 130755Z 08006KT 08/M04 A3026 RMK A01 T00811035  RH  044%=      5-min Rain = 0
KSE1 130800Z 09006KT 08/M03 A3026 RMK A01 T00811034  RH  045%=      5-min Rain = 0
KSE1 130805Z 09006KT 08/M03 A3026 RMK A01 T00791031  RH  046%=      5-min Rain = 0
KSE1 130810Z 09006KT 08/M03 A3026 RMK A01 T00791028  RH  047%=      5-min Rain = 0
KSE1 130815Z 10006KT 08/M02 A3026 RMK A01 T00771024  RH  049%=      5-min Rain = 0
KSE1 130820Z 10006KT 08/M02 A3026 RMK A01 T00761022  RH  050%=      5-min Rain = 0
KSE1 130825Z 09006KT 08/M03 A3026 RMK A01 T00761026  RH  049%=      5-min Rain = 0
KSE1 130830Z 09005KT 08/M03 A3026 RMK A01 T00761029  RH  048%=      5-min Rain = 0
KSE1 130835Z 08006KT 08/M03 A3026 RMK A01 T00781034  RH  046%=      5-min Rain = 0
KSE1 130840Z 08006KT 08/M04 A3026 RMK A01 T00781037  RH  044%=      5-min Rain = 0
KSE1 130845Z 08005KT 08/M04 A3026 RMK A01 T00781038  RH  044%=      5-min Rain = 0
KSE1 130850Z 08005KT 08/M04 A3026 RMK A01 T00781040  RH  044%=      5-min Rain = 0
KSE1 130855Z 07005KT 08/M04 A3026 RMK A01 T00761037  RH  045%=      5-min Rain = 0
KSE1 130900Z 07006KT 08/M04 A3026 RMK A01 T00761036  RH  046%=      5-min Rain = 0
KSE1 130905Z 07004KT 08/M03 A3026 RMK A01 T00751034  RH  047%=      5-min Rain = 0
KSE1 130910Z 07005KT 07/M03 A3026 RMK A01 T00741031  RH  048%=      5-min Rain = 0
KSE1 130915Z 06006KT 08/M03 A3026 RMK A01 T00751032  RH  047%=      5-min Rain = 0
KSE1 130920Z 06005KT 08/M03 A3026 RMK A01 T00751031  RH  048%=      5-min Rain = 0
KSE1 130925Z 06004KT 07/M03 A3026 RMK A01 T00731028  RH  049%=      5-min Rain = 0
KSE1 130930Z 06005KT 07/M03 A3026 RMK A01 T00721028  RH  050%=      5-min Rain = 0
KSE1 130935Z 06004KT 07/M03 A3026 RMK A01 T00721028  RH  050%=      5-min Rain = 0
KSE1 130940Z 06004KT 07/M03 A3026 RMK A01 T00711027  RH  050%=      5-min Rain = 0
KSE1 130945Z 06004KT 07/M03 A3026 RMK A01 T00691026  RH  051%=      5-min Rain = 0
KSE1 130950Z 06004KT 07/M03 A3026 RMK A01 T00681025  RH  052%=      5-min Rain = 0
KSE1 130955Z 05003KT 06/M02 A3026 RMK A01 T00641022  RH  055%=      5-min Rain = 0
KSE1 131000Z 05004KT 06/M02 A3026 RMK A01 T00611021  RH  056%=      5-min Rain = 0
KSE1 131005Z 05004KT 06/M02 A3026 RMK A01 T00591022  RH  057%=      5-min Rain = 0
KSE1 131010Z 05005KT 06/M03 A3026 RMK A01 T00561025  RH  057%=      5-min Rain = 0
KSE1 131015Z 04005KT 05/M03 A3026 RMK A01 T00521027  RH  058%=      5-min Rain = 0
KSE1 131020Z 04006KT 05/M03 A3026 RMK A01 T00471028  RH  059%=      5-min Rain = 0
KSE1 131025Z 04006KT 04/M03 A3027 RMK A01 T00441029  RH  060%=      5-min Rain = 0
KSE1 131030Z 04006KT 04/M03 A3027 RMK A01 T00431030  RH  060%=      5-min Rain = 0
KSE1 131035Z 04006KT 04/M03 A3027 RMK A01 T00421030  RH  060%=      5-min Rain = 0
KSE1 131040Z 04005KT 04/M03 A3028 RMK A01 T00421031  RH  060%=      5-min Rain = 0
KSE1 131045Z 04005KT 04/M03 A3028 RMK A01 T00401032  RH  060%=      5-min Rain = 0
KSE1 131050Z 03006KT 04/M03 A3028 RMK A01 T00381032  RH  061%=      5-min Rain = 0
KSE1 131055Z 03006KT 04/M03 A3028 RMK A01 T00351033  RH  062%=      5-min Rain = 0
KSE1 131100Z 03006KT 03/M03 A3028 RMK A01 T00341034  RH  061%=      5-min Rain = 0
KSE1 131105Z 03005KT 03/M04 A3029 RMK A01 T00331035  RH  062%=      5-min Rain = 0
KSE1 131110Z 04006KT 03/M04 A3029 RMK A01 T00321038  RH  061%=      5-min Rain = 0
KSE1 131115Z 04005KT 03/M04 A3029 RMK A01 T00321041  RH  060%=      5-min Rain = 0
KSE1 131120Z 04005KT 03/M04 A3029 RMK A01 T00331042  RH  059%=      5-min Rain = 0
KSE1 131125Z 04005KT 03/M04 A3029 RMK A01 T00331044  RH  058%=      5-min Rain = 0
KSE1 131130Z 04006KT 03/M05 A303 RMK A01 T00321045  RH  058%=      5-min Rain = 0
KSE1 131135Z 04006KT 03/M05 A303 RMK A01 T00301045  RH  059%=      5-min Rain = 0
KSE1 131140Z 04006KT 03/M05 A3029 RMK A01 T00271045  RH  060%=      5-min Rain = 0
KSE1 131145Z 05006KT 03/M05 A3029 RMK A01 T00261046  RH  060%=      5-min Rain = 0
KSE1 131150Z 05005KT 03/M05 A3029 RMK A01 T00261046  RH  060%=      5-min Rain = 0
KSE1 131155Z 05006KT 03/M05 A3029 RMK A01 T00271045  RH  060%=      5-min Rain = 0
KSE1 131200Z 05006KT 03/M05 A303 RMK A01 T00271045  RH  060%=      5-min Rain = 0
KSE1 131205Z 04006KT 03/M05 A303 RMK A01 T00261045  RH  060%=      5-min Rain = 0
KSE1 131210Z 04006KT 03/M04 A303 RMK A01 T00251044  RH  061%=      5-min Rain = 0
KSE1 131215Z 03006KT 02/M04 A303 RMK A01 T00231042  RH  063%=      5-min Rain = 0
KSE1 131220Z 03007KT 02/M04 A303 RMK A01 T00221041  RH  064%=      5-min Rain = 0
KSE1 131225Z 04007KT 02/M04 A303 RMK A01 T00231040  RH  064%=      5-min Rain = 0
KSE1 131230Z 04006KT 02/M04 A3031 RMK A01 T00201040  RH  065%=      5-min Rain = 0
KSE1 131235Z 05003KT 02/M04 A3031 RMK A01 T00181041  RH  066%=      5-min Rain = 0
KSE1 131240Z 05003KT 01/M04 A3031 RMK A01 T00141041  RH  067%=      5-min Rain = 0
KSE1 131245Z 04004KT 02/M04 A3032 RMK A01 T00201040  RH  065%=      5-min Rain = 0
KSE1 131250Z 04004KT 02/M04 A3032 RMK A01 T00221041  RH  064%=      5-min Rain = 0
KSE1 131255Z 04002KT 02/M04 A3032 RMK A01 T00231042  RH  063%=      5-min Rain = 0
KSE1 131300Z 03003KT 02/M05 A3032 RMK A01 T00171045  RH  064%=      5-min Rain = 0
KSE1 131305Z 02002KT 01/M04 A3032 RMK A01 T00141040  RH  068%=      5-min Rain = 0
KSE1 131310Z 01001KT 02/M04 A3032 RMK A01 T00151039  RH  068%=      5-min Rain = 0
KSE1 131315Z 03001KT 02/M04 A3033 RMK A01 T00171036  RH  069%=      5-min Rain = 0
KSE1 131320Z 03003KT 02/M03 A3033 RMK A01 T00211030  RH  070%=      5-min Rain = 0
KSE1 131325Z 02002KT 03/M02 A3033 RMK A01 T00251024  RH  071%=      5-min Rain = 0
KSE1 131330Z 03004KT 03/M02 A3034 RMK A01 T00291022  RH  070%=      5-min Rain = 0
KSE1 131335Z 03004KT 04/M02 A3034 RMK A01 T00351021  RH  068%=      5-min Rain = 0
KSE1 131340Z 03005KT 04/M02 A3035 RMK A01 T00401020  RH  066%=      5-min Rain = 0
KSE1 131345Z 03005KT 04/M02 A3035 RMK A01 T00441021  RH  063%=      5-min Rain = 0
KSE1 131350Z 03005KT 05/M02 A3035 RMK A01 T00491022  RH  061%=      5-min Rain = 0
KSE1 131355Z 03005KT 05/M03 A3036 RMK A01 T00521025  RH  058%=      5-min Rain = 0
KSE1 131400Z 03004KT 06/M03 A3036 RMK A01 T00551025  RH  057%=      5-min Rain = 0
KSE1 131405Z 04005KT 06/M03 A3036 RMK A01 T00581026  RH  055%=      5-min Rain = 0
KSE1 131410Z 04005KT 06/M03 A3036 RMK A01 T00601027  RH  054%=      5-min Rain = 0
KSE1 131415Z 05005KT 06/M03 A3037 RMK A01 T00621028  RH  053%=      5-min Rain = 0
KSE1 131420Z 05005KT 06/M03 A3037 RMK A01 T00641027  RH  053%=      5-min Rain = 0
KSE1 131425Z 04005KT 06/M03 A3037 RMK A01 T00641027  RH  053%=      5-min Rain = 0
KSE1 131430Z 05006KT 06/M03 A3037 RMK A01 T00641029  RH  052%=      5-min Rain = 0
KSE1 131435Z 06004KT 07/M03 A3037 RMK A01 T00671027  RH  051%=      5-min Rain = 0
KSE1 131440Z 05005KT 07/M03 A3037 RMK A01 T00701027  RH  050%=      5-min Rain = 0
KSE1 131445Z 05005KT 07/M03 A3037 RMK A01 T00731026  RH  050%=      5-min Rain = 0
KSE1 131450Z 05004KT 07/M03 A3037 RMK A01 T00741026  RH  050%=      5-min Rain = 0
KSE1 131455Z 05004KT 08/M03 A3037 RMK A01 T00801027  RH  047%=      5-min Rain = 0
KSE1 131500Z 06005KT 08/M03 A3037 RMK A01 T00841030  RH  045%=      5-min Rain = 0
KSE1 131505Z 05005KT 09/M03 A3037 RMK A01 T00871028  RH  045%=      5-min Rain = 0
KSE1 131510Z 07005KT 09/M03 A3037 RMK A01 T00901030  RH  043%=      5-min Rain = 0
KSE1 131515Z 07006KT 09/M04 A3037 RMK A01 T00911036  RH  041%=      5-min Rain = 0
KSE1 131520Z 06006KT 09/M04 A3037 RMK A01 T00911036  RH  041%=      5-min Rain = 0
KSE1 131525Z 05007KT 10/M04 A3037 RMK A01 T00961038  RH  039%=      5-min Rain = 0
KSE1 131530Z 05007KT 10/M04 A3038 RMK A01 T00971041  RH  038%=      5-min Rain = 0
KSE1 131535Z 05008KT 10/M04 A3038 RMK A01 T01001042  RH  037%=      5-min Rain = 0
KSE1 131540Z 04009KT 10/M05 A3038 RMK A01 T01021046  RH  035%=      5-min Rain = 0
KSE1 131545Z 04011KT 10/M05 A3038 RMK A01 T01011053  RH  034%=      5-min Rain = 0
KSE1 131550Z 05009KT 10/M05 A3038 RMK A01 T01021046  RH  035%=      5-min Rain = 0
KSE1 131555Z 04009KT 11/M04 A3038 RMK A01 T01071044  RH  035%=      5-min Rain = 0
KSE1 131600Z 04010KT 11/M05 A3038 RMK A01 T01051048  RH  034%=      5-min Rain = 0
KSE1 131605Z 05009G14KT 11/M05 A3038 RMK A01 T01081049  RH  033%=      5-min Rain = 0
KSE1 131610Z 04009KT 11/M05 A3038 RMK A01 T01101051  RH  032%=      5-min Rain = 0
KSE1 131615Z 05009KT 11/M05 A3038 RMK A01 T01111048  RH  033%=      5-min Rain = 0
KSE1 131620Z 03010KT 11/M05 A3038 RMK A01 T01131052  RH  031%=      5-min Rain = 0
KSE1 131625Z 03009KT 11/M05 A3038 RMK A01 T01101054  RH  032%=      5-min Rain = 0
KSE1 131630Z 04009KT 11/M05 A3038 RMK A01 T01131052  RH  032%=      5-min Rain = 0
KSE1 131635Z 05008KT 11/M06 A3038 RMK A01 T01121055  RH  031%=      5-min Rain = 0
KSE1 131640Z 04009KT 11/M05 A3038 RMK A01 T01141052  RH  031%=      5-min Rain = 0
KSE1 131645Z 04006KT 12/M05 A3038 RMK A01 T01161052  RH  031%=      5-min Rain = 0
KSE1 131650Z 05008G13KT 12/M05 A3038 RMK A01 T01211051  RH  030%=      5-min Rain = 0
KSE1 131655Z 06007KT 12/M06 A3038 RMK A01 T01171056  RH  030%=      5-min Rain = 0
KSE1 131700Z 06007KT 12/M05 A3038 RMK A01 T01211054  RH  029%=      5-min Rain = 0
KSE1 131705Z 05007KT 12/M06 A3038 RMK A01 T01231055  RH  029%=      5-min Rain = 0
KSE1 131710Z 04008KT 12/M05 A3038 RMK A01 T01231054  RH  029%=      5-min Rain = 0
KSE1 131715Z 01007KT 12/M05 A3038 RMK A01 T01231053  RH  029%=      5-min Rain = 0
KSE1 131720Z 02007KT 12/M05 A3038 RMK A01 T01231052  RH  030%=      5-min Rain = 0
KSE1 131725Z 04005KT 13/M05 A3037 RMK A01 T01251051  RH  029%=      5-min Rain = 0
KSE1 131730Z 03006KT 13/M05 A3037 RMK A01 T01271048  RH  029%=      5-min Rain = 0
KSE1 131735Z 05006G11KT 13/M05 A3037 RMK A01 T01271048  RH  030%=      5-min Rain = 0
KSE1 131740Z 05004G9KT 13/M05 A3037 RMK A01 T01301046  RH  029%=      5-min Rain = 0
KSE1 131745Z 01004G9KT 13/M05 A3037 RMK A01 T01301048  RH  029%=      5-min Rain = 0
KSE1 131750Z 06005KT 13/M05 A3037 RMK A01 T01291047  RH  029%=      5-min Rain = 0
KSE1 131755Z 09005KT 13/M04 A3037 RMK A01 T01321044  RH  029%=      5-min Rain = 0
KSE1 131800Z 03005KT 14/M04 A3037 RMK A01 T01371042  RH  029%=      5-min Rain = 0
KSE1 131805Z 06008KT 14/M04 A3037 RMK A01 T01371043  RH  029%=      5-min Rain = 0
KSE1 131810Z 07005G11KT 13/M05 A3037 RMK A01 T01331046  RH  029%=      5-min Rain = 0
KSE1 131815Z 06006G12KT 14/M04 A3036 RMK A01 T01361040  RH  030%=      5-min Rain = 0
KSE1 131820Z 03006G11KT 14/M04 A3036 RMK A01 T01361044  RH  029%=      5-min Rain = 0
KSE1 131825Z 06004KT 14/M04 A3036 RMK A01 T01361042  RH  029%=      5-min Rain = 0
KSE1 131830Z 01008KT 14/M04 A3036 RMK A01 T01411042  RH  028%=      5-min Rain = 0
KSE1 131835Z 02008G14KT 14/M05 A3035 RMK A01 T01381047  RH  028%=      5-min Rain = 0
KSE1 131840Z 02007G14KT 14/M04 A3035 RMK A01 T01411044  RH  028%=      5-min Rain = 0
KSE1 131845Z 01007KT 14/M04 A3034 RMK A01 T01421043  RH  028%=      5-min Rain = 0
KSE1 131850Z 01010G15KT 14/M04 A3034 RMK A01 T01411043  RH  028%=      5-min Rain = 0
KSE1 131855Z 01006KT 14/M04 A3034 RMK A01 T01431042  RH  028%=      5-min Rain = 0
KSE1 131900Z 01005G12KT 14/M04 A3033 RMK A01 T01421043  RH  028%=      5-min Rain = 0
KSE1 131905Z 06006G12KT 15/M04 A3033 RMK A01 T01451039  RH  028%=      5-min Rain = 0
KSE1 131910Z 02007KT 15/M04 A3033 RMK A01 T01481041  RH  027%=      5-min Rain = 0
KSE1 131915Z 36009G14KT 15/M04 A3033 RMK A01 T01471042  RH  027%=      5-min Rain = 0
KSE1 131920Z 02008KT 15/M04 A3033 RMK A01 T01461042  RH  027%=      5-min Rain = 0
KSE1 131925Z 01008G13KT 15/M04 A3033 RMK A01 T01471044  RH  027%=      5-min Rain = 0
KSE1 131930Z 01010KT 15/M04 A3032 RMK A01 T01471043  RH  027%=      5-min Rain = 0
KSE1 131935Z 03008G13KT 15/M05 A3032 RMK A01 T01471045  RH  026%=      5-min Rain = 0
KSE1 131940Z 04007G15KT 15/M04 A3032 RMK A01 T01481043  RH  027%=      5-min Rain = 0
KSE1 131945Z 01007KT 15/M04 A3032 RMK A01 T01531040  RH  026%=      5-min Rain = 0
KSE1 131950Z 03007KT 15/M04 A3032 RMK A01 T01541041  RH  026%=      5-min Rain = 0
KSE1 131955Z 03007KT 16/M04 A3031 RMK A01 T01551040  RH  026%=      5-min Rain = 0
KSE1 132000Z 01008KT 15/M04 A3031 RMK A01 T01541039  RH  026%=      5-min Rain = 0
KSE1 132005Z 04008KT 16/M04 A3031 RMK A01 T01551040  RH  026%=      5-min Rain = 0
KSE1 132010Z 04010G17KT 16/M04 A3031 RMK A01 T01561040  RH  026%=      5-min Rain = 0
KSE1 132015Z 03011G16KT 16/M04 A3031 RMK A01 T01561040  RH  026%=      5-min Rain = 0
KSE1 132020Z 04010G16KT 16/M04 A3031 RMK A01 T01571039  RH  026%=      5-min Rain = 0
KSE1 132025Z 03010G16KT 16/M04 A303 RMK A01 T01551040  RH  026%=      5-min Rain = 0
KSE1 132030Z 04009G14KT 15/M04 A303 RMK A01 T01541040  RH  026%=      5-min Rain = 0
KSE1 132035Z 05008G13KT 16/M04 A303 RMK A01 T01561038  RH  026%=      5-min Rain = 0
KSE1 132040Z 03007G13KT 16/M04 A303 RMK A01 T01561038  RH  026%=      5-min Rain = 0
KSE1 132045Z 02010KT 16/M04 A303 RMK A01 T01581039  RH  026%=      5-min Rain = 0
KSE1 132050Z 03009G15KT 16/M04 A303 RMK A01 T01601038  RH  026%=      5-min Rain = 0
KSE1 132055Z 05010G15KT 16/M04 A303 RMK A01 T01591042  RH  025%=      5-min Rain = 0
KSE1 132100Z 04009G16KT 16/M04 A3029 RMK A01 T01581041  RH  026%=      5-min Rain = 0
KSE1 132105Z 05011KT 16/M04 A3029 RMK A01 T01601043  RH  025%=      5-min Rain = 0
KSE1 132110Z 05010KT 16/M04 A3029 RMK A01 T01601044  RH  025%=      5-min Rain = 0
KSE1 132115Z 04009KT 16/M04 A3029 RMK A01 T01641042  RH  024%=      5-min Rain = 0
KSE1 132120Z 02010KT 16/M04 A3029 RMK A01 T01641043  RH  024%=      5-min Rain = 0
KSE1 132125Z 03012G18KT 16/M05 A3029 RMK A01 T01631046  RH  024%=      5-min Rain = 0
KSE1 132130Z 04010G15KT 16/M05 A3029 RMK A01 T01611047  RH  024%=      5-min Rain = 0
KSE1 132135Z 03011KT 16/M05 A3029 RMK A01 T01601049  RH  024%=      5-min Rain = 0
KSE1 132140Z 03011KT 16/M05 A3029 RMK A01 T01601049  RH  024%=      5-min Rain = 0
KSE1 132145Z 05006KT 16/M05 A3029 RMK A01 T01601050  RH  024%=      5-min Rain = 0
KSE1 132150Z 01011G18KT 16/M05 A3029 RMK A01 T01631048  RH  023%=      5-min Rain = 0
KSE1 132155Z 03010G15KT 16/M05 A3029 RMK A01 T01641050  RH  023%=      5-min Rain = 0
KSE1 132200Z 03009G14KT 16/M05 A3029 RMK A01 T01631050  RH  023%=      5-min Rain = 0
KSE1 132205Z 02009KT 16/M05 A3028 RMK A01 T01621050  RH  023%=      5-min Rain = 0
KSE1 132210Z 04009KT 16/M05 A3028 RMK A01 T01631051  RH  023%=      5-min Rain = 0
KSE1 132215Z 03009KT 16/M05 A3028 RMK A01 T01621052  RH  023%=      5-min Rain = 0
KSE1 132220Z 02012G17KT 16/M05 A3028 RMK A01 T01631053  RH  023%=      5-min Rain = 0
KSE1 132225Z 02009G14KT 16/M05 A3028 RMK A01 T01621052  RH  023%=      5-min Rain = 0
KSE1 132230Z 04012G18KT 16/M05 A3028 RMK A01 T01621054  RH  022%=      5-min Rain = 0
KSE1 132235Z 03011KT 17/M05 A3028 RMK A01 T01651051  RH  023%=      5-min Rain = 0
KSE1 132240Z 03009KT 17/M05 A3027 RMK A01 T01651050  RH  023%=      5-min Rain = 0
KSE1 132245Z 04010G15KT 16/M05 A3027 RMK A01 T01631054  RH  022%=      5-min Rain = 0
KSE1 132250Z 01010KT 16/M05 A3027 RMK A01 T01621051  RH  023%=      5-min Rain = 0
KSE1 132255Z 03009G14KT 16/M05 A3027 RMK A01 T01621051  RH  023%=      5-min Rain = 0
KSE1 132300Z 02009KT 16/M05 A3027 RMK A01 T01611052  RH  023%=      5-min Rain = 0
KSE1 132305Z 03009G14KT 16/M05 A3028 RMK A01 T01601054  RH  023%=      5-min Rain = 0
KSE1 132310Z 03011KT 16/M05 A3028 RMK A01 T01601053  RH  023%=      5-min Rain = 0
KSE1 132315Z 02008G13KT 16/M05 A3028 RMK A01 T01591054  RH  023%=      5-min Rain = 0
KSE1 132320Z 02010KT 16/M05 A3028 RMK A01 T01601054  RH  023%=      5-min Rain = 0
KSE1 132325Z 03010KT 16/M06 A3028 RMK A01 T01571057  RH  023%=      5-min Rain = 0
KSE1 132330Z 03009KT 16/M06 A3028 RMK A01 T01571056  RH  023%=      5-min Rain = 0
KSE1 132335Z 05010KT 16/M06 A3028 RMK A01 T01571057  RH  023%=      5-min Rain = 0
KSE1 132340Z 04007KT 16/M06 A3028 RMK A01 T01561059  RH  022%=      5-min Rain = 0
KSE1 132345Z 04007KT 16/M06 A3028 RMK A01 T01571056  RH  023%=      5-min Rain = 0
KSE1 132350Z 03007KT 16/M06 A3028 RMK A01 T01561058  RH  023%=      5-min Rain = 0
KSE1 132355Z 04008KT 16/M06 A3028 RMK A01 T01551059  RH  023%=      5-min Rain = 0
KSE1 140000Z 05007KT 15/M06 A3028 RMK A01 T01531056  RH  023%=      5-min Rain = 0
KSE1 140005Z 05007KT 15/M06 A3028 RMK A01 T01521056  RH  024%=      5-min Rain = 0
KSE1 140010Z 04008KT 15/M06 A3027 RMK A01 T01491058  RH  024%=      5-min Rain = 0
KSE1 140015Z 05008KT 15/M06 A3027 RMK A01 T01471060  RH  024%=      5-min Rain = 0
KSE1 140020Z 06007KT 15/M06 A3028 RMK A01 T01461064  RH  023%=      5-min Rain = 0
KSE1 140025Z 06006KT 14/M06 A3028 RMK A01 T01441062  RH  024%=      5-min Rain = 0
KSE1 140030Z 05005KT 14/M06 A3028 RMK A01 T01401059  RH  025%=      5-min Rain = 0
KSE1 140035Z 04007KT 14/M06 A3028 RMK A01 T01361056  RH  026%=      5-min Rain = 0
KSE1 140040Z 04008KT 13/M06 A3028 RMK A01 T01341060  RH  026%=      5-min Rain = 0
KSE1 140045Z 05007KT 13/M06 A3028 RMK A01 T01311060  RH  026%=      5-min Rain = 0
KSE1 140050Z 05006KT 13/M06 A3028 RMK A01 T01271059  RH  027%=      5-min Rain = 0
KSE1 140055Z 05006KT 12/M06 A3028 RMK A01 T01231059  RH  028%=      5-min Rain = 0
KSE1 140100Z 05005KT 12/M06 A3028 RMK A01 T01201058  RH  029%=      5-min Rain = 0
KSE1 140105Z 05005KT 12/M06 A3028 RMK A01 T01171058  RH  029%=      5-min Rain = 0
KSE1 140110Z 05005KT 12/M06 A3028 RMK A01 T01151056  RH  030%=      5-min Rain = 0
KSE1 140115Z 05005KT 11/M05 A3028 RMK A01 T01081052  RH  032%=      5-min Rain = 0
KSE1 140120Z 05006KT 10/M05 A3028 RMK A01 T01031052  RH  034%=      5-min Rain = 0
KSE1 140125Z 05005KT 10/M05 A3028 RMK A01 T01001050  RH  035%=      5-min Rain = 0
KSE1 140130Z 05006KT 10/M05 A3028 RMK A01 T00981050  RH  035%=      5-min Rain = 0
KSE1 140135Z 05006KT 10/M05 A3028 RMK A01 T00981052  RH  035%=      5-min Rain = 0
KSE1 140140Z 05006KT 10/M05 A3029 RMK A01 T00971053  RH  035%=      5-min Rain = 0
KSE1 140145Z 05005KT 10/M05 A3029 RMK A01 T00961052  RH  035%=      5-min Rain = 0
KSE1 140150Z 06005KT 09/M05 A3029 RMK A01 T00921050  RH  037%=      5-min Rain = 0
KSE1 140155Z 05005KT 09/M05 A3029 RMK A01 T00891049  RH  038%=      5-min Rain = 0
KSE1 140200Z 05005KT 09/M05 A303 RMK A01 T00851048  RH  039%=      5-min Rain = 0
KSE1 140205Z 05005KT 08/M05 A303 RMK A01 T00821047  RH  040%=      5-min Rain = 0
KSE1 140210Z 05005KT 08/M05 A303 RMK A01 T00811048  RH  040%=      5-min Rain = 0
KSE1 140215Z 06005KT 08/M05 A303 RMK A01 T00821048  RH  040%=      5-min Rain = 0
KSE1 140220Z 06004KT 08/M05 A303 RMK A01 T00811048  RH  040%=      5-min Rain = 0
KSE1 140225Z 06005KT 08/M05 A303 RMK A01 T00761046  RH  042%=      5-min Rain = 0
KSE1 140230Z 05005KT 07/M05 A3031 RMK A01 T00741047  RH  042%=      5-min Rain = 0
KSE1 140235Z 06005KT 08/M05 A3031 RMK A01 T00751047  RH  042%=      5-min Rain = 0
KSE1 140240Z 05004KT 08/M05 A3031 RMK A01 T00761047  RH  042%=      5-min Rain = 0
KSE1 140245Z 05004KT 08/M04 A3031 RMK A01 T00751044  RH  043%=      5-min Rain = 0
KSE1 140250Z 06004KT 07/M04 A3032 RMK A01 T00701043  RH  045%=      5-min Rain = 0
KSE1 140255Z 06004KT 07/M05 A3032 RMK A01 T00681045  RH  045%=      5-min Rain = 0
KSE1 140300Z 06004KT 07/M05 A3032 RMK A01 T00691045  RH  044%=      5-min Rain = 0
KSE1 140305Z 04006KT 07/M04 A3032 RMK A01 T00681042  RH  046%=      5-min Rain = 0
KSE1 140310Z 04006KT 06/M04 A3032 RMK A01 T00641041  RH  048%=      5-min Rain = 0
KSE1 140315Z 05005KT 06/M04 A3032 RMK A01 T00611041  RH  048%=      5-min Rain = 0
KSE1 140320Z 05005KT 07/M04 A3033 RMK A01 T00651040  RH  048%=      5-min Rain = 0
KSE1 140325Z 06004KT 07/M04 A3033 RMK A01 T00651040  RH  048%=      5-min Rain = 0
KSE1 140330Z 07005KT 07/M04 A3033 RMK A01 T00661042  RH  046%=      5-min Rain = 0
KSE1 140335Z 06006KT 07/M05 A3033 RMK A01 T00721048  RH  043%=      5-min Rain = 0
KSE1 140340Z 06007KT 08/M05 A3033 RMK A01 T00791051  RH  040%=      5-min Rain = 0
KSE1 140345Z 06006KT 08/M05 A3033 RMK A01 T00841053  RH  038%=      5-min Rain = 0
KSE1 140350Z 05005KT 08/M05 A3033 RMK A01 T00811050  RH  039%=      5-min Rain = 0
KSE1 140355Z 05006KT 07/M05 A3034 RMK A01 T00731046  RH  043%=      5-min Rain = 0
KSE1 140400Z 05006KT 07/M05 A3034 RMK A01 T00691045  RH  044%=      5-min Rain = 0
KSE1 140405Z 05006KT 07/M05 A3034 RMK A01 T00691047  RH  044%=      5-min Rain = 0
KSE1 140410Z 06005KT 07/M05 A3034 RMK A01 T00691047  RH  044%=      5-min Rain = 0
KSE1 140415Z 06005KT 07/M05 A3034 RMK A01 T00661045  RH  045%=      5-min Rain = 0
KSE1 140420Z 06005KT 06/M05 A3034 RMK A01 T00641045  RH  046%=      5-min Rain = 0
KSE1 140425Z 06005KT 06/M04 A3034 RMK A01 T00611044  RH  047%=      5-min Rain = 0
KSE1 140430Z 06004KT 06/M04 A3034 RMK A01 T00601044  RH  048%=      5-min Rain = 0
KSE1 140435Z 06004KT 06/M04 A3034 RMK A01 T00601044  RH  048%=      5-min Rain = 0
KSE1 140440Z 07004KT 06/M05 A3034 RMK A01 T00601046  RH  047%=      5-min Rain = 0
KSE1 140445Z 07005KT 06/M05 A3034 RMK A01 T00641051  RH  044%=      5-min Rain = 0
KSE1 140450Z 06005KT 06/M05 A3034 RMK A01 T00631047  RH  046%=      5-min Rain = 0
KSE1 140455Z 06005KT 06/M04 A3034 RMK A01 T00571043  RH  049%=      5-min Rain = 0

Page generated in 0.0094 seconds.